createdAt,value
2019-03-21T00:01:01.908Z,5.50
2019-03-21T00:03:33.985Z,5.40
2019-03-21T00:06:07.359Z,5.40
2019-03-21T00:08:39.451Z,5.40
2019-03-21T00:11:58.888Z,5.30
2019-03-21T00:15:03.344Z,5.30
2019-03-21T00:17:40.031Z,5.30
2019-03-21T00:20:19.099Z,5.30
2019-03-21T00:22:51.209Z,5.40
2019-03-21T00:25:24.983Z,5.30
2019-03-21T00:27:57.080Z,5.20
2019-03-21T00:30:29.250Z,5.10
2019-03-21T00:33:01.224Z,5.10
2019-03-21T00:35:33.270Z,5.00
2019-03-21T00:38:05.327Z,5.00
2019-03-21T00:40:40.823Z,4.90
2019-03-21T00:43:13.802Z,4.90
2019-03-21T00:45:45.889Z,4.80
2019-03-21T00:48:20.103Z,4.70
2019-03-21T00:50:52.105Z,4.80
2019-03-21T00:53:24.137Z,5.00
2019-03-21T00:55:57.825Z,5.00
2019-03-21T00:58:29.787Z,4.90
2019-03-21T01:01:02.602Z,4.90
2019-03-21T01:03:34.625Z,4.80
2019-03-21T01:06:06.748Z,4.70
2019-03-21T01:08:38.706Z,4.70
2019-03-21T01:11:10.739Z,4.80
2019-03-21T01:13:42.960Z,4.80
2019-03-21T01:16:15.014Z,4.70
2019-03-21T01:18:47.174Z,4.80
2019-03-21T01:21:19.306Z,4.90
2019-03-21T01:23:51.527Z,5.20
2019-03-21T01:26:23.475Z,5.10
2019-03-21T01:28:55.453Z,5.10
2019-03-21T01:31:27.495Z,5.00
2019-03-21T01:33:59.508Z,5.10
2019-03-21T01:36:31.941Z,5.20
2019-03-21T01:39:04.357Z,5.10
2019-03-21T01:41:36.300Z,5.00
2019-03-21T01:44:08.525Z,5.00
2019-03-21T01:46:40.530Z,5.00
2019-03-21T01:49:12.613Z,5.00
2019-03-21T01:51:44.636Z,5.20
2019-03-21T01:54:16.654Z,5.20
2019-03-21T01:56:48.708Z,5.30
2019-03-21T01:59:20.734Z,5.40
2019-03-21T02:01:52.787Z,5.40
2019-03-21T02:04:24.840Z,5.40
2019-03-21T02:06:56.911Z,5.40
2019-03-21T02:09:28.966Z,5.40
2019-03-21T02:12:01.150Z,5.40
2019-03-21T02:14:33.209Z,5.40
2019-03-21T02:17:05.291Z,5.30
2019-03-21T02:19:37.305Z,5.40
2019-03-21T02:22:09.393Z,5.60
2019-03-21T02:24:41.407Z,5.80
2019-03-21T02:27:13.487Z,6.00
2019-03-21T02:29:45.537Z,6.00
2019-03-21T02:32:17.593Z,6.10
2019-03-21T02:34:49.693Z,6.10
2019-03-21T02:37:21.747Z,6.10
2019-03-21T02:39:59.910Z,6.10
2019-03-21T02:42:27.520Z,6.00
2019-03-21T02:45:08.515Z,6.10
2019-03-21T02:47:33.208Z,6.00
2019-03-21T02:50:05.569Z,5.90
2019-03-21T02:52:37.521Z,5.80
2019-03-21T02:55:10.315Z,5.90
2019-03-21T02:57:42.418Z,5.80
2019-03-21T03:00:18.711Z,5.80
2019-03-21T03:02:52.150Z,5.60
2019-03-21T03:05:26.429Z,5.50
2019-03-21T03:07:58.532Z,5.60
2019-03-21T03:10:37.754Z,5.60
2019-03-21T03:13:09.846Z,5.60
2019-03-21T03:15:41.989Z,5.40
2019-03-21T03:18:14.024Z,5.30
2019-03-21T03:20:46.035Z,5.20
2019-03-21T03:23:18.171Z,5.30
2019-03-21T03:25:51.195Z,5.20
2019-03-21T03:28:25.669Z,5.20
2019-03-21T03:30:58.243Z,5.10
2019-03-21T03:33:30.285Z,5.00
2019-03-21T03:36:02.403Z,4.90
2019-03-21T03:38:34.400Z,4.90
2019-03-21T03:41:06.677Z,5.00
2019-03-21T03:43:38.629Z,4.90
2019-03-21T03:46:10.693Z,5.00
2019-03-21T03:48:42.724Z,5.00
2019-03-21T03:51:14.809Z,5.10
2019-03-21T03:53:46.809Z,5.10
2019-03-21T03:56:18.902Z,5.20
2019-03-21T03:58:52.401Z,5.20
2019-03-21T04:01:24.456Z,5.40
2019-03-21T04:03:56.653Z,5.40
2019-03-21T04:06:28.833Z,5.30
2019-03-21T04:09:01.024Z,5.40
2019-03-21T04:11:33.177Z,5.40
2019-03-21T04:14:05.286Z,5.50
2019-03-21T04:16:37.314Z,5.50
2019-03-21T04:19:09.443Z,5.50
2019-03-21T04:21:41.482Z,5.40
2019-03-21T04:24:13.562Z,5.30
2019-03-21T04:26:45.644Z,5.20
2019-03-21T04:29:17.761Z,5.10
2019-03-21T04:31:49.792Z,5.00
2019-03-21T04:34:21.776Z,4.90
2019-03-21T04:36:53.899Z,4.70
2019-03-21T04:39:25.942Z,4.70
2019-03-21T04:41:58.270Z,4.60
2019-03-21T04:44:30.195Z,4.50
2019-03-21T04:47:02.113Z,4.40
2019-03-21T04:49:34.144Z,4.30
2019-03-21T04:52:06.249Z,4.30
2019-03-21T04:54:38.297Z,4.30
2019-03-21T04:57:10.246Z,4.30
2019-03-21T04:59:42.378Z,4.30
2019-03-21T05:02:14.419Z,4.20
2019-03-21T05:04:46.480Z,4.10
2019-03-21T05:07:18.516Z,4.00
2019-03-21T05:09:50.618Z,4.00
2019-03-21T05:12:22.668Z,4.00
2019-03-21T05:14:54.699Z,3.90
2019-03-21T05:17:26.749Z,3.80
2019-03-21T05:19:58.882Z,3.80
2019-03-21T05:22:34.138Z,3.70
2019-03-21T05:25:07.069Z,3.80
2019-03-21T05:27:39.130Z,3.80
2019-03-21T05:30:16.206Z,3.70
2019-03-21T05:32:48.174Z,3.70
2019-03-21T05:35:20.213Z,3.70
2019-03-21T05:37:52.204Z,3.60
2019-03-21T05:40:24.282Z,3.60
2019-03-21T05:43:04.282Z,3.70
2019-03-21T05:45:36.203Z,3.70
2019-03-21T05:48:08.276Z,3.70
2019-03-21T05:50:40.391Z,3.70
2019-03-21T05:53:12.492Z,3.70
2019-03-21T05:55:44.483Z,3.70
2019-03-21T05:58:16.556Z,3.90
2019-03-21T06:00:51.374Z,4.10
2019-03-21T06:03:27.362Z,4.10
2019-03-21T06:06:13.370Z,4.20
2019-03-21T06:08:45.442Z,4.20
2019-03-21T06:11:18.054Z,4.20
2019-03-21T06:13:50.086Z,4.20
2019-03-21T06:16:22.126Z,4.30
2019-03-21T06:19:18.566Z,4.40
2019-03-21T06:22:53.589Z,4.40
2019-03-21T06:25:48.315Z,4.60
2019-03-21T06:28:20.467Z,4.70
2019-03-21T06:30:52.489Z,4.70
2019-03-21T06:33:24.579Z,4.90
2019-03-21T06:35:56.590Z,5.10
2019-03-21T06:38:28.679Z,5.20
2019-03-21T06:41:00.779Z,5.30
2019-03-21T06:43:32.761Z,5.40
2019-03-21T06:46:05.109Z,5.40
2019-03-21T06:48:37.195Z,5.60
2019-03-21T06:51:09.316Z,5.70
2019-03-21T06:53:41.314Z,5.80
2019-03-21T06:56:13.411Z,6.00
2019-03-21T06:58:45.456Z,6.20
2019-03-21T07:01:17.534Z,6.50
2019-03-21T07:03:49.592Z,7.20
2019-03-21T07:06:21.571Z,7.90
2019-03-21T07:08:53.676Z,8.70
2019-03-21T07:11:25.738Z,9.50
2019-03-21T07:13:57.844Z,10.30
2019-03-21T07:16:29.816Z,11.10
2019-03-21T07:19:01.902Z,11.90
2019-03-21T07:21:33.946Z,12.80
2019-03-21T07:24:07.533Z,13.70
2019-03-21T07:26:39.519Z,14.60
2019-03-21T07:29:32.696Z,15.30
2019-03-21T07:32:05.108Z,15.90
2019-03-21T07:34:37.687Z,16.50
2019-03-21T07:37:09.815Z,16.20
2019-03-21T07:39:41.938Z,16.30
2019-03-21T07:42:14.189Z,16.60
2019-03-21T07:44:46.222Z,16.70
2019-03-21T07:47:18.215Z,17.10
2019-03-21T07:49:50.284Z,17.30
2019-03-21T07:52:22.421Z,17.50
2019-03-21T07:54:54.553Z,17.80
2019-03-21T07:57:26.604Z,17.90
2019-03-21T07:59:58.729Z,18.10
2019-03-21T08:02:30.840Z,18.10
2019-03-21T08:05:02.938Z,18.00
2019-03-21T08:07:34.941Z,17.90
2019-03-21T08:10:08.425Z,18.00
2019-03-21T08:12:40.422Z,18.20
2019-03-21T08:15:31.422Z,18.10
2019-03-21T08:18:03.582Z,18.30
2019-03-21T08:20:35.556Z,18.60
2019-03-21T08:23:08.985Z,19.00
2019-03-21T08:25:41.102Z,19.50
2019-03-21T08:28:13.086Z,19.70
2019-03-21T08:31:18.571Z,20.00
2019-03-21T08:33:50.643Z,20.10
2019-03-21T08:36:22.647Z,19.90
2019-03-21T08:39:02.355Z,19.70
2019-03-21T08:41:34.598Z,20.00
2019-03-21T08:44:07.001Z,20.50
2019-03-21T08:46:39.024Z,20.70
2019-03-21T08:49:11.384Z,20.60
2019-03-21T08:51:43.426Z,20.00
2019-03-21T08:54:15.504Z,19.80
2019-03-21T08:56:47.596Z,19.60
2019-03-21T08:59:22.248Z,18.90
2019-03-21T09:01:54.411Z,18.20
2019-03-21T09:04:28.096Z,18.50
2019-03-21T09:07:00.165Z,18.60
2019-03-21T09:09:32.167Z,18.90
2019-03-21T09:12:04.255Z,19.30
2019-03-21T09:14:36.391Z,19.70
2019-03-21T09:17:09.691Z,19.10
2019-03-21T09:19:41.902Z,19.10
2019-03-21T09:22:17.286Z,19.00
2019-03-21T09:24:49.489Z,19.00
2019-03-21T09:27:21.574Z,19.00
2019-03-21T09:29:54.078Z,19.20
2019-03-21T09:32:26.184Z,19.10
2019-03-21T09:34:58.296Z,19.40
2019-03-21T09:37:30.467Z,19.10
2019-03-21T09:40:02.604Z,18.70
2019-03-21T09:42:34.751Z,18.20
2019-03-21T09:48:16.558Z,16.70
2019-03-21T09:50:48.634Z,16.00
2019-03-21T09:53:20.895Z,15.70
2019-03-21T09:55:53.080Z,15.40
2019-03-21T09:58:25.345Z,15.20
2019-03-21T10:00:57.499Z,14.90
2019-03-21T10:03:29.419Z,14.90
2019-03-21T10:06:01.428Z,14.90
2019-03-21T10:08:33.546Z,14.60
2019-03-21T10:11:05.772Z,14.60
2019-03-21T10:13:37.846Z,14.50
2019-03-21T10:16:10.063Z,14.60
2019-03-21T10:18:42.247Z,14.70
2019-03-21T10:21:17.347Z,14.60
2019-03-21T10:23:49.443Z,14.40
2019-03-21T10:26:21.612Z,14.40
2019-03-21T10:28:53.803Z,14.10
2019-03-21T10:31:26.133Z,13.90
2019-03-21T10:33:58.182Z,13.90
2019-03-21T10:36:30.204Z,13.90
2019-03-21T10:39:02.534Z,13.90
2019-03-21T10:41:34.669Z,14.10
2019-03-21T10:44:06.776Z,14.10
2019-03-21T10:46:42.836Z,14.20
2019-03-21T10:49:14.974Z,14.30
2019-03-21T10:51:54.889Z,14.50
2019-03-21T10:54:23.805Z,14.60
2019-03-21T10:56:55.943Z,14.60
2019-03-21T10:59:27.971Z,14.70
2019-03-21T11:02:07.250Z,14.70
2019-03-21T11:04:34.816Z,14.70
2019-03-21T11:07:03.554Z,14.70
2019-03-21T11:09:35.754Z,14.70
2019-03-21T11:12:09.045Z,14.70
2019-03-21T11:14:41.380Z,14.90
2019-03-21T11:17:13.527Z,14.80
2019-03-21T11:19:45.666Z,14.80
2019-03-21T11:22:18.943Z,14.80
2019-03-21T11:24:58.337Z,14.80
2019-03-21T11:27:32.941Z,14.90
2019-03-21T11:30:15.640Z,15.00
2019-03-21T11:32:39.529Z,15.00
2019-03-21T11:35:11.613Z,15.00
2019-03-21T11:37:43.660Z,15.00
2019-03-21T11:40:21.386Z,15.00
2019-03-21T11:42:58.478Z,15.00
2019-03-21T11:45:35.015Z,15.00
2019-03-21T11:48:18.104Z,15.10
2019-03-21T11:50:50.261Z,15.00
2019-03-21T11:53:22.782Z,15.10
2019-03-21T11:55:54.864Z,15.00
2019-03-21T11:58:26.928Z,15.10
2019-03-21T12:00:58.970Z,15.20
2019-03-21T12:03:31.113Z,15.30
2019-03-21T12:06:03.201Z,15.20
2019-03-21T12:08:35.283Z,15.20
2019-03-21T12:11:07.477Z,15.30
2019-03-21T12:13:39.538Z,15.40
2019-03-21T12:16:11.596Z,15.50
2019-03-21T12:18:43.820Z,15.60
2019-03-21T12:21:15.839Z,15.60
2019-03-21T12:23:47.899Z,15.60
2019-03-21T12:26:20.172Z,15.50
2019-03-21T12:28:52.290Z,15.50
2019-03-21T12:31:25.030Z,15.60
2019-03-21T12:33:59.156Z,15.60
2019-03-21T12:36:30.848Z,15.60
2019-03-21T12:39:11.376Z,15.50
2019-03-21T12:41:43.511Z,15.50
2019-03-21T12:44:15.732Z,15.50
2019-03-21T12:46:47.904Z,15.60
2019-03-21T12:49:20.033Z,15.60
2019-03-21T12:51:52.130Z,15.50
2019-03-21T12:54:27.364Z,15.40
2019-03-21T12:56:59.414Z,15.40
2019-03-21T12:59:31.491Z,15.40
2019-03-21T13:02:03.696Z,15.50
2019-03-21T13:04:35.829Z,15.60
2019-03-21T13:07:07.837Z,15.70
2019-03-21T13:09:39.894Z,15.90
2019-03-21T13:12:11.969Z,16.10
2019-03-21T13:14:44.068Z,16.10
2019-03-21T13:17:16.061Z,16.10
2019-03-21T13:19:48.274Z,16.10
2019-03-21T13:22:20.362Z,16.00
2019-03-21T13:24:52.503Z,16.00
2019-03-21T13:27:24.681Z,16.10
2019-03-21T13:29:56.794Z,16.10
2019-03-21T13:32:30.288Z,16.00
2019-03-21T13:35:02.421Z,15.90
2019-03-21T13:37:34.485Z,16.00
2019-03-21T13:40:06.869Z,16.00
2019-03-21T13:42:38.880Z,16.00
2019-03-21T13:45:11.082Z,16.10
2019-03-21T13:47:43.076Z,16.20
2019-03-21T13:50:15.501Z,16.20
2019-03-21T13:52:47.624Z,16.30
2019-03-21T13:55:19.862Z,16.20
2019-03-21T13:57:51.998Z,16.20
2019-03-21T14:00:24.761Z,16.20
2019-03-21T14:02:56.896Z,16.20
2019-03-21T14:05:29.099Z,16.20
2019-03-21T14:08:01.494Z,16.40
2019-03-21T14:10:33.852Z,16.50
2019-03-21T14:13:06.255Z,16.50
2019-03-21T14:15:38.728Z,16.40
2019-03-21T14:18:10.967Z,16.40
2019-03-21T14:20:43.102Z,16.30
2019-03-21T14:23:17.233Z,16.30
2019-03-21T14:25:49.209Z,16.30
2019-03-21T14:28:21.484Z,16.30
2019-03-21T14:30:53.787Z,16.20
2019-03-21T14:33:26.009Z,16.10
2019-03-21T14:35:58.077Z,16.20
2019-03-21T14:38:30.205Z,16.20
2019-03-21T14:41:02.521Z,16.20
2019-03-21T14:43:34.755Z,16.20
2019-03-21T14:46:07.027Z,16.20
2019-03-21T14:48:39.186Z,16.20
2019-03-21T14:51:11.257Z,16.20
2019-03-21T14:53:43.447Z,16.30
2019-03-21T14:56:15.550Z,16.30
2019-03-21T14:58:47.645Z,16.30
2019-03-21T15:01:19.792Z,16.30
2019-03-21T15:03:56.974Z,16.40
2019-03-21T15:06:29.179Z,16.40
2019-03-21T15:09:04.171Z,16.50
2019-03-21T15:11:39.414Z,16.40
2019-03-21T15:14:14.955Z,16.50
2019-03-21T15:16:48.663Z,16.40
2019-03-21T15:19:20.729Z,16.50
2019-03-21T15:21:52.695Z,16.50
2019-03-21T15:24:24.796Z,16.50
2019-03-21T15:26:56.836Z,16.50
2019-03-21T15:29:28.970Z,16.50
2019-03-21T15:32:01.163Z,16.40
2019-03-21T15:34:33.344Z,16.40
2019-03-21T15:37:05.490Z,16.50
2019-03-21T15:39:37.597Z,16.50
2019-03-21T15:42:09.681Z,16.50
2019-03-21T15:44:43.551Z,16.50
2019-03-21T15:47:15.777Z,16.50
2019-03-21T15:49:47.908Z,16.50
2019-03-21T15:52:20.083Z,16.50
2019-03-21T15:54:52.146Z,16.50
2019-03-21T15:57:24.324Z,16.50
2019-03-21T15:59:56.339Z,16.70
2019-03-21T16:02:28.506Z,16.80
2019-03-21T16:05:00.634Z,16.90
2019-03-21T16:07:32.797Z,17.00
2019-03-21T16:10:05.360Z,17.10
2019-03-21T16:12:37.490Z,17.20
2019-03-21T16:15:11.589Z,17.20
2019-03-21T16:17:43.729Z,17.30
2019-03-21T16:20:15.967Z,17.40
2019-03-21T16:22:48.120Z,17.60
2019-03-21T16:25:20.133Z,17.70
2019-03-21T16:27:52.252Z,17.40
2019-03-21T16:30:24.455Z,17.10
2019-03-21T16:32:56.540Z,16.80
2019-03-21T16:35:28.788Z,16.80
2019-03-21T16:38:00.957Z,16.80
2019-03-21T16:40:33.236Z,16.70
2019-03-21T16:43:06.019Z,16.60
2019-03-21T16:45:38.422Z,16.60
2019-03-21T16:48:10.483Z,16.60
2019-03-21T16:50:42.638Z,16.60
2019-03-21T16:53:14.800Z,16.70
2019-03-21T16:55:46.825Z,16.70
2019-03-21T16:58:18.941Z,16.50
2019-03-21T17:00:50.961Z,16.20
2019-03-21T17:03:23.111Z,16.00
2019-03-21T17:05:55.189Z,15.80
2019-03-21T17:08:27.257Z,15.60
2019-03-21T17:10:59.368Z,15.40
2019-03-21T17:13:31.452Z,15.30
2019-03-21T17:16:05.634Z,15.20
2019-03-21T17:18:37.504Z,15.10
2019-03-21T17:21:09.902Z,15.00
2019-03-21T17:23:42.051Z,14.90
2019-03-21T17:26:15.873Z,14.90
2019-03-21T17:28:48.038Z,14.80
2019-03-21T17:31:20.173Z,14.70
2019-03-21T17:33:52.343Z,14.70
2019-03-21T17:36:24.521Z,14.60
2019-03-21T17:38:56.827Z,14.50
2019-03-21T17:41:28.806Z,14.40
2019-03-21T17:44:00.976Z,14.40
2019-03-21T17:46:33.587Z,14.30
2019-03-21T17:49:05.765Z,14.10
2019-03-21T17:51:37.956Z,14.10
2019-03-21T17:54:10.061Z,14.10
2019-03-21T17:56:42.227Z,14.10
2019-03-21T17:59:14.355Z,14.00
2019-03-21T18:01:46.623Z,13.90
2019-03-21T18:04:18.896Z,13.90
2019-03-21T18:06:58.758Z,13.90
2019-03-21T18:09:31.580Z,13.90
2019-03-21T18:12:04.255Z,13.90
2019-03-21T18:14:36.450Z,13.80
2019-03-21T18:17:08.715Z,13.70
2019-03-21T18:19:40.868Z,13.50
2019-03-21T18:22:15.715Z,13.50
2019-03-21T18:24:53.860Z,13.50
2019-03-21T18:27:22.200Z,13.40
2019-03-21T18:29:56.206Z,13.30
2019-03-21T18:32:28.790Z,13.30
2019-03-21T18:35:01.213Z,13.20
2019-03-21T18:37:34.211Z,13.10
2019-03-21T18:40:06.847Z,13.10
2019-03-21T18:43:00.739Z,13.00
2019-03-21T18:45:40.204Z,12.90
2019-03-21T18:48:12.316Z,12.90
2019-03-21T18:50:44.460Z,12.80
2019-03-21T18:53:16.651Z,12.70
2019-03-21T18:55:53.875Z,12.50
2019-03-21T18:58:36.452Z,12.50
2019-03-21T19:01:13.488Z,12.50
2019-03-21T19:03:45.642Z,12.50
2019-03-21T19:06:17.743Z,12.40
2019-03-21T19:08:51.289Z,12.30
2019-03-21T19:11:23.505Z,12.20
2019-03-21T19:13:55.733Z,12.20
2019-03-21T19:16:32.058Z,12.10
2019-03-21T19:19:04.084Z,12.00
2019-03-21T19:21:36.269Z,11.90
2019-03-21T19:24:11.343Z,11.80
2019-03-21T19:26:42.303Z,11.90
2019-03-21T19:29:19.024Z,11.80
2019-03-21T19:31:51.362Z,11.60
2019-03-21T19:34:24.824Z,11.40
2019-03-21T19:37:00.017Z,11.20
2019-03-21T19:39:36.811Z,11.00
2019-03-21T19:42:08.958Z,10.80
2019-03-21T19:44:41.178Z,10.70
2019-03-21T19:47:23.230Z,10.50
2019-03-21T19:49:47.295Z,10.40
2019-03-21T19:52:19.471Z,10.30
2019-03-21T19:54:51.700Z,10.20
2019-03-21T19:57:23.795Z,10.20
2019-03-21T19:59:56.007Z,10.10
2019-03-21T20:02:28.169Z,10.00
2019-03-21T20:05:00.395Z,9.90
2019-03-21T20:07:32.489Z,9.80
2019-03-21T20:10:04.991Z,9.80
2019-03-21T20:12:37.526Z,9.80
2019-03-21T20:15:11.145Z,9.80
2019-03-21T20:17:43.175Z,9.70
2019-03-21T20:20:15.571Z,9.60
2019-03-21T20:22:47.948Z,9.50
2019-03-21T20:25:20.333Z,9.60
2019-03-21T20:27:52.511Z,9.80
2019-03-21T20:30:24.840Z,9.70
2019-03-21T20:33:00.861Z,9.60
2019-03-21T20:35:32.980Z,9.50
2019-03-21T20:38:05.249Z,9.40
2019-03-21T20:40:39.206Z,9.40
2019-03-21T20:43:10.991Z,9.40
2019-03-21T20:45:43.083Z,9.30
2019-03-21T20:48:15.064Z,9.20
2019-03-21T20:54:24.883Z,9.20
2019-03-21T20:56:57.080Z,9.10
2019-03-21T20:59:29.228Z,8.90
2019-03-21T21:02:03.047Z,8.90
2019-03-21T21:04:35.250Z,8.80
2019-03-21T21:07:07.461Z,8.90
2019-03-21T21:09:39.583Z,9.00
2019-03-21T21:12:11.714Z,8.90
2019-03-21T21:14:43.926Z,8.90
2019-03-21T21:17:16.037Z,8.80
2019-03-21T21:19:48.181Z,8.70
2019-03-21T21:22:20.249Z,8.60
2019-03-21T21:24:52.437Z,8.60
2019-03-21T21:27:24.706Z,8.60
2019-03-21T21:29:56.917Z,8.60
2019-03-21T21:32:29.151Z,8.60
2019-03-21T21:35:01.383Z,8.50
2019-03-21T21:37:33.857Z,8.40
2019-03-21T21:40:07.172Z,8.40
2019-03-21T21:42:39.507Z,8.30
2019-03-21T21:45:13.623Z,8.20
2019-03-21T21:47:48.680Z,8.20
2019-03-21T21:50:22.565Z,8.20
2019-03-21T21:52:55.108Z,8.20
2019-03-21T21:55:27.438Z,8.20
2019-03-21T21:57:59.607Z,8.20
2019-03-21T22:00:31.803Z,8.10
2019-03-21T22:03:11.307Z,8.20
2019-03-21T22:05:43.493Z,8.30
2019-03-21T22:08:15.796Z,8.40
2019-03-21T22:10:48.245Z,8.40
2019-03-21T22:13:20.515Z,8.50
2019-03-21T22:15:52.751Z,8.50
2019-03-21T22:18:27.775Z,8.50
2019-03-21T22:20:59.928Z,8.40
2019-03-21T22:23:32.157Z,8.40
2019-03-21T22:26:04.474Z,8.40
2019-03-21T22:28:36.611Z,8.50
2019-03-21T22:31:09.023Z,8.60
2019-03-21T22:33:41.424Z,8.80
2019-03-21T22:36:16.662Z,8.80
2019-03-21T22:38:48.810Z,8.90
2019-03-21T22:41:20.997Z,9.00
2019-03-21T22:43:53.211Z,9.00
2019-03-21T22:46:25.393Z,9.10
2019-03-21T22:48:57.506Z,9.20
2019-03-21T22:51:29.650Z,9.30
2019-03-21T22:54:01.821Z,9.30
2019-03-21T22:56:40.989Z,9.30
2019-03-21T22:59:07.811Z,9.20
2019-03-21T23:01:40.036Z,9.00
2019-03-21T23:04:30.937Z,9.00
2019-03-21T23:07:03.082Z,9.10
2019-03-21T23:09:35.204Z,9.00
2019-03-21T23:12:07.401Z,8.80
2019-03-21T23:14:39.551Z,8.70
2019-03-21T23:17:11.737Z,8.60
2019-03-21T23:19:44.010Z,8.50
2019-03-21T23:22:16.421Z,8.60
2019-03-21T23:24:48.490Z,8.60
2019-03-21T23:27:20.596Z,8.60
2019-03-21T23:29:52.692Z,8.50
2019-03-21T23:32:24.803Z,8.40
2019-03-21T23:34:56.970Z,8.20
2019-03-21T23:37:29.184Z,8.10
2019-03-21T23:40:01.282Z,8.30
2019-03-21T23:42:33.475Z,8.30
2019-03-21T23:45:05.959Z,8.20
2019-03-21T23:47:38.229Z,8.30
2019-03-21T23:50:10.865Z,8.30
2019-03-21T23:52:43.051Z,8.50
2019-03-21T23:55:15.705Z,8.50
2019-03-21T23:57:47.861Z,8.60
